Time;durP1;ratioP1;P1;durP2;ratioP2;P2;SDS_P1;SDS_P2;PMS_P1;PMS_P2;Temp;Humidity;BMP_temperature;BMP_pressure;BME280_temperature;BME280_humidity;BME280_pressure;Samples;Min_cycle;Max_cycle;Signal;HPM_P1;HPM_P2
2023/12/22 00:00:30;;;;;;;0.00;0.00;;;11.40;76.90;;;;;;5083778;28;20207;-24
2023/12/22 00:03:04;;;;;;;0.00;0.00;;;11.40;76.40;;;;;;5087416;28;20213;-23
2023/12/22 00:05:34;;;;;;;0.00;0.00;;;11.40;76.80;;;;;;5083919;28;20659;-24
2023/12/22 00:08:04;;;;;;;0.00;0.00;;;11.40;76.60;;;;;;5085292;28;20313;-23
2023/12/22 00:10:33;;;;;;;0.00;0.00;;;11.40;76.60;;;;;;5066962;28;20207;-24
2023/12/22 00:13:03;;;;;;;0.00;0.00;;;11.40;77.20;;;;;;5083749;28;20214;-24
2023/12/22 00:15:32;;;;;;;0.00;0.00;;;11.40;76.60;;;;;;5084063;28;20230;-23
2023/12/22 00:18:02;;;;;;;0.00;0.00;;;11.30;76.60;;;;;;5069330;28;20218;-24
2023/12/22 00:20:32;;;;;;;0.00;0.00;;;11.30;76.80;;;;;;5085402;28;20736;-23
2023/12/22 00:23:02;;;;;;;0.00;0.00;;;11.30;77.00;;;;;;5084412;28;20207;-24
2023/12/22 00:25:31;;;;;;;0.00;0.00;;;11.30;76.80;;;;;;5083322;28;20203;-23
2023/12/22 00:27:58;;;;;;;0.00;0.00;;;11.30;76.90;;;;;;5083438;28;20710;-24
2023/12/22 00:30:28;;;;;;;0.00;0.00;;;11.30;76.80;;;;;;5065969;28;20684;-24
2023/12/22 00:32:56;;;;;;;0.00;0.00;;;11.30;77.50;;;;;;5085084;28;20260;-23
2023/12/22 00:35:28;;;;;;;0.00;0.00;;;11.20;76.40;;;;;;5084674;28;20225;-24
2023/12/22 00:37:55;;;;;;;0.00;0.00;;;11.20;76.50;;;;;;5084896;28;20210;-24
2023/12/22 00:40:22;;;;;;;0.00;0.00;;;11.20;76.10;;;;;;5084628;28;20195;-23
2023/12/22 00:42:52;;;;;;;0.00;0.00;;;11.30;76.30;;;;;;5083424;28;20202;-24
2023/12/22 00:45:22;;;;;;;0.00;0.00;;;11.20;77.10;;;;;;5065773;28;20539;-23
2023/12/22 00:47:51;;;;;;;0.00;0.00;;;11.20;76.20;;;;;;5084596;28;20194;-23
2023/12/22 00:50:22;;;;;;;0.00;0.00;;;11.20;76.30;;;;;;5066875;28;20199;-23
2023/12/22 00:52:49;;;;;;;0.00;0.00;;;11.20;76.40;;;;;;5084579;28;20443;-23
2023/12/22 00:55:16;;;;;;;0.00;0.00;;;11.20;76.20;;;;;;5084816;28;20195;-24
2023/12/22 00:57:46;;;;;;;0.00;0.00;;;11.20;76.50;;;;;;5066780;28;20204;-23
2023/12/22 01:00:18;;;;;;;0.00;0.00;;;11.20;76.50;;;;;;5083718;28;20203;-24
2023/12/22 01:02:45;;;;;;;0.00;0.00;;;11.20;76.00;;;;;;5082332;28;20222;-24
2023/12/22 01:05:13;;;;;;;0.00;0.00;;;11.20;76.50;;;;;;5082370;28;20293;-24
2023/12/22 01:07:40;;;;;;;0.00;0.00;;;11.20;76.20;;;;;;5083129;28;20218;-23
2023/12/22 01:10:09;;;;;;;0.00;0.00;;;11.20;76.50;;;;;;5079534;28;20468;-24
2023/12/22 01:12:36;;;;;;;0.00;0.00;;;11.20;76.50;;;;;;5085270;28;20215;-23
2023/12/22 01:15:06;;;;;;;0.00;0.00;;;11.20;76.40;;;;;;5085618;28;20664;-24
2023/12/22 01:17:35;;;;;;;0.00;0.00;;;11.20;76.70;;;;;;5087958;28;20199;-24
2023/12/22 01:20:06;;;;;;;0.00;0.00;;;11.20;76.70;;;;;;5070478;28;20562;-24
2023/12/22 01:22:38;;;;;;;0.00;0.00;;;11.20;76.70;;;;;;5086641;28;20202;-24
2023/12/22 01:25:06;;;;;;;0.00;0.00;;;11.20;76.80;;;;;;5086654;28;20229;-24
2023/12/22 01:27:38;;;;;;;0.00;0.00;;;11.20;76.90;;;;;;5086295;28;20207;-24
2023/12/22 01:30:10;;;;;;;0.00;0.00;;;11.20;76.80;;;;;;5086978;28;20247;-23
2023/12/22 01:32:37;;;;;;;0.00;0.00;;;11.20;76.90;;;;;;5086629;28;20664;-23
2023/12/22 01:35:09;;;;;;;0.00;0.00;;;11.20;76.90;;;;;;5086417;28;20293;-23
2023/12/22 01:37:39;;;;;;;0.00;0.00;;;11.20;77.00;;;;;;5087883;28;20260;-23
2023/12/22 01:40:07;;;;;;;0.00;0.00;;;11.20;76.70;;;;;;5087534;28;20264;-23
2023/12/22 01:42:34;;;;;;;0.00;0.00;;;11.20;76.80;;;;;;5086126;28;20236;-23
2023/12/22 01:45:01;;;;;;;0.00;0.00;;;11.20;76.40;;;;;;5085471;28;20207;-23
2023/12/22 01:47:31;;;;;;;0.00;0.00;;;11.20;76.60;;;;;;5069678;28;20225;-23
2023/12/22 01:50:03;;;;;;;0.00;0.00;;;11.20;76.60;;;;;;5087394;28;20223;-23
2023/12/22 01:52:31;;;;;;;0.00;0.00;;;11.20;76.50;;;;;;5102918;28;20207;-23
2023/12/22 01:54:58;;;;;;;0.00;0.00;;;11.20;76.50;;;;;;5103033;28;20206;-23
2023/12/22 01:57:26;;;;;;;0.00;0.00;;;11.20;76.00;;;;;;5087525;28;20284;-23
2023/12/22 01:59:53;;;;;;;0.00;0.00;;;11.20;76.50;;;;;;5069355;28;20204;-23
2023/12/22 02:02:23;;;;;;;0.00;0.00;;;11.20;76.50;;;;;;5079884;28;20195;-23
2023/12/22 02:04:50;;;;;;;0.00;0.00;;;11.20;76.70;;;;;;5076872;28;20242;-23
2023/12/22 02:07:19;;;;;;;0.00;0.00;;;11.20;76.80;;;;;;5074835;28;20236;-23
2023/12/22 02:09:49;;;;;;;0.00;0.00;;;11.30;76.40;;;;;;5085900;28;20257;-23
2023/12/22 02:12:19;;;;;;;0.00;0.00;;;11.20;76.60;;;;;;5089447;28;20715;-23
2023/12/22 02:14:46;;;;;;;0.00;0.00;;;11.30;76.70;;;;;;5103939;28;20199;-23
2023/12/22 02:17:52;;;;;;;0.00;0.00;;;11.30;76.60;;;;;;5087148;28;20257;-22
2023/12/22 02:20:21;;;;;;;0.00;0.00;;;11.30;76.70;;;;;;5085268;28;20275;-23
2023/12/22 02:22:52;;;;;;;0.00;0.00;;;11.20;76.50;;;;;;5102413;28;20218;-25
2023/12/22 02:25:20;;;;;;;0.00;0.00;;;11.20;76.50;;;;;;5103925;28;20581;-23
2023/12/22 02:27:55;;;;;;;0.00;0.00;;;11.20;76.50;;;;;;5086489;28;20267;-23
2023/12/22 02:30:37;;;;;;;0.00;0.00;;;11.20;76.60;;;;;;5103374;28;20355;-23
2023/12/22 02:33:06;;;;;;;0.00;0.00;;;11.30;76.70;;;;;;5088932;28;20226;-23
2023/12/22 02:35:36;;;;;;;0.00;0.00;;;11.30;76.60;;;;;;5103090;28;20773;-23
2023/12/22 02:38:12;;;;;;;0.00;0.00;;;11.30;76.30;;;;;;5086576;28;20213;-23
2023/12/22 02:40:40;;;;;;;0.00;0.00;;;11.30;76.60;;;;;;5101551;28;20285;-23
2023/12/22 02:43:08;;;;;;;0.00;0.00;;;11.30;76.30;;;;;;5086463;28;20582;-23
2023/12/22 02:45:37;;;;;;;0.00;0.00;;;11.30;76.60;;;;;;5087952;28;20555;-23
2023/12/22 02:48:05;;;;;;;0.00;0.00;;;11.30;76.50;;;;;;5086255;28;20566;-23
2023/12/22 02:50:33;;;;;;;0.00;0.00;;;11.30;76.60;;;;;;5084872;28;20195;-23
2023/12/22 02:53:07;;;;;;;0.00;0.00;;;11.30;76.60;;;;;;5100966;28;20305;-23
2023/12/22 02:55:34;;;;;;;0.00;0.00;;;11.30;76.70;;;;;;5086057;28;20195;-23
2023/12/22 02:58:06;;;;;;;0.00;0.00;;;11.30;76.40;;;;;;5068223;28;20620;-23
2023/12/22 03:00:33;;;;;;;0.00;0.00;;;11.30;76.00;;;;;;5083756;28;20210;-23
2023/12/22 03:03:03;;;;;;;0.00;0.00;;;11.30;76.20;;;;;;5086010;28;20691;-23
2023/12/22 03:05:33;;;;;;;0.00;0.00;;;11.20;76.40;;;;;;5084006;28;20659;-23
2023/12/22 03:08:03;;;;;;;0.00;0.00;;;11.30;75.70;;;;;;5086099;28;20218;-23
2023/12/22 03:10:35;;;;;;;0.00;0.00;;;11.30;76.30;;;;;;5085617;28;20229;-23
2023/12/22 03:13:03;;;;;;;0.00;0.00;;;11.20;76.00;;;;;;5070267;28;20629;-23
2023/12/22 03:15:30;;;;;;;0.00;0.00;;;11.20;76.20;;;;;;5087234;28;20609;-23
2023/12/22 03:17:57;;;;;;;0.00;0.00;;;11.20;76.00;;;;;;5085096;28;20205;-23
2023/12/22 03:20:27;;;;;;;0.00;0.00;;;11.20;75.90;;;;;;5034125;28;20834;-23
2023/12/22 03:22:56;;;;;;;0.00;0.00;;;11.20;75.40;;;;;;5066334;28;20555;-23
2023/12/22 03:25:25;;;;;;;0.00;0.00;;;11.20;75.90;;;;;;5079985;28;21001;-23
2023/12/22 03:27:55;;;;;;;0.00;0.00;;;11.20;75.70;;;;;;5085482;28;20230;-22
2023/12/22 03:30:24;;;;;;;0.00;0.00;;;11.20;75.50;;;;;;5085286;28;20230;-23
2023/12/22 03:32:54;;;;;;;0.00;0.00;;;11.20;75.70;;;;;;5085622;28;20199;-23
2023/12/22 03:35:21;;;;;;;0.00;0.00;;;11.20;76.00;;;;;;5083129;28;20202;-23
2023/12/22 03:37:53;;;;;;;0.00;0.00;;;11.20;75.90;;;;;;5083762;28;20729;-23
2023/12/22 03:40:20;;;;;;;0.00;0.00;;;11.20;76.00;;;;;;5084979;28;20198;-23
2023/12/22 03:42:49;;;;;;;0.00;0.00;;;11.20;76.10;;;;;;5083644;28;20296;-23
2023/12/22 03:45:17;;;;;;;0.00;0.00;;;11.10;76.00;;;;;;5083102;28;20232;-23
2023/12/22 03:47:51;;;;;;;0.00;0.00;;;11.20;76.20;;;;;;5047303;28;20649;-23
2023/12/22 03:50:23;;;;;;;0.00;0.00;;;11.10;76.20;;;;;;5046956;28;20540;-23
2023/12/22 03:52:56;;;;;;;0.00;0.00;;;11.20;76.10;;;;;;5065150;28;20691;-23
2023/12/22 03:55:28;;;;;;;0.00;0.00;;;11.10;75.90;;;;;;5063031;28;20192;-23
2023/12/22 03:58:00;;;;;;;0.00;0.00;;;11.20;76.00;;;;;;5063324;28;20207;-23
2023/12/22 04:00:27;;;;;;;0.00;0.00;;;11.20;76.00;;;;;;5079778;28;20203;-23
2023/12/22 04:02:54;;;;;;;0.00;0.00;;;11.20;76.20;;;;;;5085229;28;20203;-23
2023/12/22 04:05:26;;;;;;;0.00;0.00;;;11.20;76.20;;;;;;5083115;28;20324;-23
2023/12/22 04:07:54;;;;;;;0.00;0.00;;;11.20;76.40;;;;;;5085135;28;20225;-23
2023/12/22 04:10:23;;;;;;;0.00;0.00;;;11.20;76.40;;;;;;5083278;28;20638;-23
2023/12/22 04:12:50;;;;;;;0.00;0.00;;;11.20;76.20;;;;;;5083743;28;20218;-23
2023/12/22 04:15:22;;;;;;;0.00;0.00;;;11.20;76.30;;;;;;5082679;28;20199;-23
2023/12/22 04:17:52;;;;;;;0.00;0.00;;;11.20;76.20;;;;;;5083422;28;20627;-23
2023/12/22 04:20:19;;;;;;;0.00;0.00;;;11.20;76.30;;;;;;5084855;28;20203;-23
2023/12/22 04:22:49;;;;;;;0.00;0.00;;;11.20;76.20;;;;;;5086721;28;20272;-23
2023/12/22 04:25:18;;;;;;;0.00;0.00;;;11.20;76.30;;;;;;5085561;28;20301;-23
2023/12/22 04:27:50;;;;;;;0.00;0.00;;;11.20;75.90;;;;;;5085510;28;20206;-23
2023/12/22 04:30:22;;;;;;;0.00;0.00;;;11.20;76.40;;;;;;5082874;28;20233;-23
2023/12/22 04:32:56;;;;;;;0.00;0.00;;;11.20;76.30;;;;;;5085594;28;20222;-23
2023/12/22 04:35:27;;;;;;;0.00;0.00;;;11.20;76.30;;;;;;5085406;28;20187;-23
2023/12/22 04:37:57;;;;;;;0.00;0.00;;;11.20;76.40;;;;;;5069188;28;20577;-23
2023/12/22 04:40:31;;;;;;;0.00;0.00;;;11.20;76.20;;;;;;5086748;28;20211;-23
2023/12/22 04:43:01;;;;;;;0.00;0.00;;;11.20;76.40;;;;;;5087105;28;20628;-23
2023/12/22 04:45:30;;;;;;;0.00;0.00;;;11.20;76.40;;;;;;5086036;28;20211;-23
2023/12/22 04:47:58;;;;;;;0.00;0.00;;;11.20;76.40;;;;;;5086627;28;20671;-23
2023/12/22 04:50:25;;;;;;;0.00;0.00;;;11.20;76.50;;;;;;5090891;28;20222;-23
2023/12/22 04:52:57;;;;;;;0.00;0.00;;;11.20;76.50;;;;;;5091133;28;20198;-23
2023/12/22 04:55:28;;;;;;;0.00;0.00;;;11.20;76.50;;;;;;5090706;28;20202;-23
2023/12/22 04:57:55;;;;;;;0.00;0.00;;;11.20;76.50;;;;;;5089254;28;20260;-23
2023/12/22 05:00:22;;;;;;;0.00;0.00;;;11.20;76.50;;;;;;5089770;28;21046;-23
2023/12/22 05:02:52;;;;;;;0.00;0.00;;;11.20;76.60;;;;;;5089296;28;20199;-23
2023/12/22 05:05:22;;;;;;;0.00;0.00;;;11.20;76.60;;;;;;5090326;28;20599;-23
2023/12/22 05:07:51;;;;;;;0.00;0.00;;;11.20;76.60;;;;;;5089023;28;20246;-23
2023/12/22 05:10:21;;;;;;;0.00;0.00;;;11.30;76.60;;;;;;5088661;28;20215;-23
2023/12/22 05:12:53;;;;;;;0.00;0.00;;;11.30;76.60;;;;;;5088933;28;20222;-22
2023/12/22 05:15:22;;;;;;;0.00;0.00;;;11.20;76.80;;;;;;5085637;28;20194;-23
2023/12/22 05:17:49;;;;;;;0.00;0.00;;;11.20;76.40;;;;;;5087895;28;20700;-23
2023/12/22 05:20:17;;;;;;;0.00;0.00;;;11.30;76.50;;;;;;5089305;28;20203;-23
2023/12/22 05:22:44;;;;;;;0.00;0.00;;;11.20;76.50;;;;;;5088729;28;20555;-23
2023/12/22 05:25:15;;;;;;;0.00;0.00;;;11.20;76.60;;;;;;5088141;28;20218;-23
2023/12/22 05:27:45;;;;;;;0.00;0.00;;;11.20;76.60;;;;;;5088757;28;20206;-23
2023/12/22 05:30:13;;;;;;;0.00;0.00;;;11.30;76.70;;;;;;5084588;28;20304;-23
2023/12/22 05:32:40;;;;;;;0.00;0.00;;;11.20;77.00;;;;;;5089162;28;20246;-23
2023/12/22 05:35:10;;;;;;;0.00;0.00;;;11.30;76.60;;;;;;5082035;28;20285;-23
2023/12/22 05:37:42;;;;;;;0.00;0.00;;;11.30;76.70;;;;;;5088341;28;20201;-23
2023/12/22 05:40:11;;;;;;;0.00;0.00;;;11.30;76.60;;;;;;5087171;28;20217;-23
2023/12/22 05:42:39;;;;;;;0.00;0.00;;;11.30;76.50;;;;;;5085038;28;20222;-23
2023/12/22 05:45:07;;;;;;;0.00;0.00;;;11.30;76.40;;;;;;5085259;28;20251;-23
2023/12/22 05:47:34;;;;;;;0.00;0.00;;;11.30;76.60;;;;;;5071099;28;20202;-23
2023/12/22 05:50:04;;;;;;;0.00;0.00;;;11.30;76.60;;;;;;5086859;28;20215;-23
2023/12/22 05:52:31;;;;;;;0.00;0.00;;;11.30;76.60;;;;;;5088942;28;20213;-23
2023/12/22 05:54:58;;;;;;;0.00;0.00;;;11.30;76.70;;;;;;5088456;28;20202;-23
2023/12/22 05:57:26;;;;;;;0.00;0.00;;;11.30;76.60;;;;;;5074741;28;20198;-23
2023/12/22 05:59:57;;;;;;;0.00;0.00;;;11.30;76.60;;;;;;5072534;28;20195;-23
2023/12/22 06:02:25;;;;;;;0.00;0.00;;;11.30;76.50;;;;;;5067693;28;20673;-23
2023/12/22 06:04:53;;;;;;;0.00;0.00;;;11.30;76.50;;;;;;5065501;28;20246;-23
2023/12/22 06:07:24;;;;;;;0.00;0.00;;;11.30;76.40;;;;;;5066483;28;20211;-23
2023/12/22 06:09:52;;;;;;;0.00;0.00;;;11.30;76.30;;;;;;5074684;28;20223;-23
2023/12/22 06:12:19;;;;;;;0.00;0.00;;;11.30;76.30;;;;;;5081785;28;20210;-23
2023/12/22 06:14:48;;;;;;;0.00;0.00;;;11.30;76.50;;;;;;5083844;28;21312;-23
2023/12/22 06:17:18;;;;;;;0.00;0.00;;;11.30;76.60;;;;;;5084220;28;20194;-23
2023/12/22 06:19:48;;;;;;;0.00;0.00;;;11.30;76.60;;;;;;5083603;28;20862;-23
2023/12/22 06:22:15;;;;;;;0.00;0.00;;;11.30;76.60;;;;;;5068735;28;20569;-23
2023/12/22 06:24:44;;;;;;;0.00;0.00;;;11.30;76.60;;;;;;5068452;28;20867;-23
2023/12/22 06:27:11;;;;;;;0.00;0.00;;;11.30;77.40;;;;;;5068471;28;20199;-23
2023/12/22 06:29:42;;;;;;;0.00;0.00;;;11.40;76.30;;;;;;5078875;28;20222;-23
2023/12/22 06:32:12;;;;;;;0.00;0.00;;;11.40;76.50;;;;;;5072915;28;20558;-23
2023/12/22 06:34:39;;;;;;;0.00;0.00;;;11.40;76.50;;;;;;5076571;28;20208;-23
2023/12/22 06:37:07;;;;;;;0.00;0.00;;;11.40;76.50;;;;;;5074510;28;20199;-23
2023/12/22 06:39:38;;;;;;;0.00;0.00;;;11.40;76.50;;;;;;5083181;28;20633;-23
2023/12/22 06:42:12;;;;;;;0.00;0.00;;;11.40;76.60;;;;;;5070078;28;20589;-23
2023/12/22 06:44:44;;;;;;;0.00;0.00;;;11.40;76.70;;;;;;5076558;28;20707;-23
2023/12/22 06:47:16;;;;;;;0.00;0.00;;;11.40;76.70;;;;;;5065843;28;20740;-23
2023/12/22 06:49:44;;;;;;;0.00;0.00;;;11.40;76.60;;;;;;5072240;28;20237;-23
2023/12/22 06:52:14;;;;;;;0.00;0.00;;;11.40;76.50;;;;;;5073304;28;20194;-23
2023/12/22 06:54:43;;;;;;;0.00;0.00;;;11.40;76.70;;;;;;5075073;28;20211;-23
2023/12/22 06:57:13;;;;;;;0.00;0.00;;;11.40;76.60;;;;;;5079493;28;20216;-23
2023/12/22 06:59:48;;;;;;;0.00;0.00;;;11.40;76.60;;;;;;5077760;28;20221;-23
2023/12/22 07:02:19;;;;;;;0.00;0.00;;;11.40;76.50;;;;;;5083823;28;20210;-39
2023/12/22 07:05:09;;;;;;;0.00;0.00;;;11.40;76.60;;;;;;5085633;28;20507;-39
2023/12/22 07:07:37;;;;;;;0.00;0.00;;;11.40;76.70;;;;;;5069558;28;20686;-40
2023/12/22 07:10:11;;;;;;;0.00;0.00;;;11.40;76.70;;;;;;5077191;28;20777;-40
2023/12/22 07:12:41;;;;;;;0.00;0.00;;;11.40;76.60;;;;;;5065317;28;20286;-39
2023/12/22 07:15:10;;;;;;;0.00;0.00;;;11.40;76.70;;;;;;5083722;28;20685;-39
2023/12/22 07:17:38;;;;;;;0.00;0.00;;;11.40;76.70;;;;;;5081899;28;20651;-39
2023/12/22 07:20:09;;;;;;;0.00;0.00;;;11.40;76.80;;;;;;5079205;28;20207;-40
2023/12/22 07:22:38;;;;;;;0.00;0.00;;;11.40;76.70;;;;;;5066552;28;20662;-41
2023/12/22 07:25:11;;;;;;;0.00;0.00;;;11.40;76.80;;;;;;5064597;28;20238;-41
2023/12/22 07:27:43;;;;;;;0.00;0.00;;;11.50;76.90;;;;;;5078838;28;20206;-41
2023/12/22 07:30:15;;;;;;;0.00;0.00;;;11.40;76.80;;;;;;5076429;28;20218;-41
2023/12/22 07:32:48;;;;;;;0.00;0.00;;;11.40;76.90;;;;;;5081259;28;20203;-40
2023/12/22 07:35:18;;;;;;;0.00;0.00;;;11.50;77.00;;;;;;5084031;28;20252;-42
2023/12/22 07:37:49;;;;;;;0.00;0.00;;;11.50;77.00;;;;;;5081891;28;20289;-41
2023/12/22 07:40:17;;;;;;;0.00;0.00;;;11.50;77.00;;;;;;5086277;28;20294;-41
2023/12/22 07:42:44;;;;;;;0.00;0.00;;;11.50;77.00;;;;;;5086475;28;20199;-42
2023/12/22 07:45:14;;;;;;;0.00;0.00;;;11.50;77.00;;;;;;5083409;28;20214;-43
2023/12/22 07:47:44;;;;;;;0.00;0.00;;;11.50;77.00;;;;;;5069837;28;20206;-41
2023/12/22 07:50:11;;;;;;;0.00;0.00;;;11.50;77.00;;;;;;5083083;28;20246;-41
2023/12/22 07:52:41;;;;;;;0.00;0.00;;;11.50;77.00;;;;;;5081561;28;20244;-42
2023/12/22 07:55:14;;;;;;;0.00;0.00;;;11.50;77.00;;;;;;5082364;28;20260;-41
2023/12/22 07:57:41;;;;;;;0.00;0.00;;;11.50;77.00;;;;;;5063668;28;20198;-42
2023/12/22 08:00:16;;;;;;;0.00;0.00;;;11.50;77.10;;;;;;5082130;28;20951;-42
2023/12/22 08:02:45;;;;;;;0.00;0.00;;;11.50;77.20;;;;;;5081064;28;20199;-41
2023/12/22 08:05:17;;;;;;;0.00;0.00;;;11.50;77.20;;;;;;5069130;28;20244;-41
2023/12/22 08:07:47;;;;;;;0.00;0.00;;;11.50;77.20;;;;;;5070047;28;20214;-43
2023/12/22 08:10:17;;;;;;;0.00;0.00;;;11.50;77.20;;;;;;5077572;28;20226;-41
2023/12/22 08:12:44;;;;;;;0.00;0.00;;;11.50;77.30;;;;;;5086560;28;20225;-41
2023/12/22 08:15:14;;;;;;;0.00;0.00;;;11.50;77.20;;;;;;5080357;28;20203;-42
2023/12/22 08:18:00;;;;;;;0.00;0.00;;;11.60;77.30;;;;;;5076618;28;20276;-41
2023/12/22 08:20:32;;;;;;;0.00;0.00;;;11.50;77.30;;;;;;5082281;28;20215;-41
2023/12/22 08:23:08;;;;;;;0.00;0.00;;;11.60;77.40;;;;;;5075954;28;20220;-41
2023/12/22 08:25:41;;;;;;;0.00;0.00;;;11.60;77.40;;;;;;5075975;28;20499;-42
2023/12/22 08:28:13;;;;;;;0.00;0.00;;;11.60;77.40;;;;;;5107235;28;20207;-43
2023/12/22 08:30:43;;;;;;;0.00;0.00;;;11.60;77.50;;;;;;5070166;28;20222;-42
2023/12/22 08:33:10;;;;;;;0.00;0.00;;;11.60;77.40;;;;;;5066749;28;20277;-42
2023/12/22 08:35:40;;;;;;;0.00;0.00;;;11.60;77.40;;;;;;5089814;28;20862;-41
2023/12/22 08:38:09;;;;;;;0.00;0.00;;;11.70;77.60;;;;;;5075546;28;20201;-40
2023/12/22 08:40:40;;;;;;;0.00;0.00;;;11.70;77.60;;;;;;5072165;28;20256;-42
2023/12/22 08:43:08;;;;;;;0.00;0.00;;;11.70;77.70;;;;;;5076778;28;20279;-42
2023/12/22 08:45:42;;;;;;;0.00;0.00;;;11.70;77.60;;;;;;5081785;28;20220;-41
2023/12/22 08:48:10;;;;;;;0.00;0.00;;;11.70;77.60;;;;;;5087009;28;20195;-42
2023/12/22 08:50:42;;;;;;;0.00;0.00;;;11.70;77.80;;;;;;5070119;28;20958;-42
2023/12/22 08:53:14;;;;;;;0.00;0.00;;;11.70;77.70;;;;;;5071946;28;20285;-41
2023/12/22 08:55:48;;;;;;;0.00;0.00;;;11.80;77.90;;;;;;5080160;28;20207;-41
2023/12/22 08:58:16;;;;;;;0.00;0.00;;;11.80;78.20;;;;;;5091498;28;20643;-42
2023/12/22 09:00:43;;;;;;;0.00;0.00;;;11.80;78.00;;;;;;5088286;28;20234;-42
2023/12/22 09:03:18;;;;;;;0.00;0.00;;;11.80;78.00;;;;;;5073817;28;20219;-41
2023/12/22 09:05:47;;;;;;;0.00;0.00;;;11.80;78.10;;;;;;5079400;28;20321;-43
2023/12/22 09:08:19;;;;;;;0.00;0.00;;;11.80;78.10;;;;;;5090209;28;20754;-40
2023/12/22 09:10:46;;;;;;;0.00;0.00;;;11.90;78.30;;;;;;5090098;28;20215;-41
2023/12/22 09:13:14;;;;;;;0.00;0.00;;;11.90;78.10;;;;;;5089822;28;20286;-42
2023/12/22 09:15:46;;;;;;;0.00;0.00;;;11.90;78.10;;;;;;5089437;28;20211;-42
2023/12/22 09:18:15;;;;;;;0.00;0.00;;;11.90;78.10;;;;;;5089033;28;20229;-41
2023/12/22 09:20:45;;;;;;;0.00;0.00;;;11.90;79.00;;;;;;5090730;28;20561;-43
2023/12/22 09:23:17;;;;;;;0.00;0.00;;;11.90;78.20;;;;;;5068295;28;20315;-41
2023/12/22 09:25:44;;;;;;;0.00;0.00;;;12.00;78.30;;;;;;5075665;28;20211;-42
2023/12/22 09:28:14;;;;;;;0.00;0.00;;;12.00;78.30;;;;;;5080580;28;20622;-43
2023/12/22 09:30:43;;;;;;;0.00;0.00;;;12.00;78.30;;;;;;5088649;28;20238;-41
2023/12/22 09:33:13;;;;;;;0.00;0.00;;;12.00;78.40;;;;;;5089420;28;20651;-42
2023/12/22 09:35:43;;;;;;;0.00;0.00;;;12.00;78.30;;;;;;5082244;28;20200;-41
2023/12/22 09:38:13;;;;;;;0.00;0.00;;;12.00;78.30;;;;;;5076228;28;20199;-41
2023/12/22 09:40:43;;;;;;;0.00;0.00;;;12.10;78.40;;;;;;5088633;28;20215;-41
2023/12/22 09:43:18;;;;;;;0.00;0.00;;;12.10;78.40;;;;;;5089019;28;20570;-42
2023/12/22 09:45:55;;;;;;;0.00;0.00;;;12.10;78.40;;;;;;5089691;28;20290;-45
2023/12/22 09:48:29;;;;;;;0.00;0.00;;;12.10;78.50;;;;;;5075529;28;20207;-45
2023/12/22 09:50:58;;;;;;;0.00;0.00;;;12.10;78.60;;;;;;5089231;28;20214;-45
2023/12/22 09:53:27;;;;;;;0.00;0.00;;;12.20;78.60;;;;;;5090690;28;20191;-45
2023/12/22 09:55:55;;;;;;;0.00;0.00;;;12.20;78.60;;;;;;5089166;28;20210;-43
2023/12/22 09:58:25;;;;;;;0.00;0.00;;;12.20;78.50;;;;;;5087379;28;20297;-45
2023/12/22 10:01:02;;;;;;;0.00;0.00;;;12.20;78.60;;;;;;5064426;28;20227;-46
2023/12/22 10:03:34;;;;;;;0.00;0.00;;;12.10;78.40;;;;;;5069379;28;20233;-46
2023/12/22 10:06:07;;;;;;;0.00;0.00;;;12.20;78.70;;;;;;5071861;28;20624;-47
2023/12/22 10:08:39;;;;;;;0.00;0.00;;;12.20;78.60;;;;;;5083860;28;20293;-46
2023/12/22 10:11:10;;;;;;;0.00;0.00;;;12.20;78.60;;;;;;5078594;28;20219;-47
2023/12/22 10:13:41;;;;;;;0.00;0.00;;;12.20;78.60;;;;;;5079363;28;20214;-46
2023/12/22 10:16:09;;;;;;;0.00;0.00;;;12.20;78.60;;;;;;5082904;28;20240;-46
2023/12/22 10:18:38;;;;;;;0.00;0.00;;;12.20;78.60;;;;;;5089972;28;20231;-49
2023/12/22 10:21:06;;;;;;;0.00;0.00;;;12.20;79.00;;;;;;5091517;28;20317;-44
2023/12/22 10:23:38;;;;;;;0.00;0.00;;;12.30;78.80;;;;;;5077455;28;20220;-46
2023/12/22 10:26:10;;;;;;;0.00;0.00;;;12.30;78.70;;;;;;5090111;28;20233;-46
2023/12/22 10:28:38;;;;;;;0.00;0.00;;;12.30;78.80;;;;;;5073764;28;20201;-47
2023/12/22 10:31:11;;;;;;;0.00;0.00;;;12.30;78.80;;;;;;5091018;28;20711;-47
2023/12/22 10:33:42;;;;;;;0.00;0.00;;;12.30;78.90;;;;;;5091867;28;20288;-45
2023/12/22 10:36:14;;;;;;;0.00;0.00;;;12.30;78.70;;;;;;5089036;28;20245;-48
2023/12/22 10:38:44;;;;;;;0.00;0.00;;;12.30;78.90;;;;;;5089451;28;20752;-46
2023/12/22 10:41:14;;;;;;;0.00;0.00;;;12.40;78.80;;;;;;5087053;28;20722;-47
2023/12/22 10:43:42;;;;;;;0.00;0.00;;;12.40;78.70;;;;;;5091995;28;20668;-46
2023/12/22 10:46:13;;;;;;;0.00;0.00;;;12.30;78.70;;;;;;5075444;28;20203;-45
2023/12/22 10:48:43;;;;;;;0.00;0.00;;;12.40;78.80;;;;;;5089959;28;20199;-46
2023/12/22 10:51:16;;;;;;;0.00;0.00;;;12.40;78.70;;;;;;5079508;28;20264;-47
2023/12/22 10:53:50;;;;;;;0.00;0.00;;;12.40;78.80;;;;;;5091627;28;20190;-44
2023/12/22 10:56:18;;;;;;;0.00;0.00;;;12.50;78.90;;;;;;5088962;28;20222;-45
2023/12/22 10:58:47;;;;;;;0.00;0.00;;;12.50;78.90;;;;;;5088861;28;20225;-45
2023/12/22 11:01:15;;;;;;;0.00;0.00;;;12.50;78.80;;;;;;5080298;28;20268;-46
2023/12/22 11:03:48;;;;;;;0.00;0.00;;;12.50;78.80;;;;;;5073378;28;20210;-44
2023/12/22 11:06:21;;;;;;;0.00;0.00;;;12.50;78.90;;;;;;5079391;28;20970;-43
2023/12/22 11:08:55;;;;;;;0.00;0.00;;;12.50;78.90;;;;;;5087261;28;20222;-43
2023/12/22 11:11:33;;;;;;;0.00;0.00;;;12.60;78.90;;;;;;5086356;28;20233;-44
2023/12/22 11:14:00;;;;;;;0.00;0.00;;;12.60;78.90;;;;;;5090078;28;20195;-43
2023/12/22 11:16:33;;;;;;;0.00;0.00;;;12.60;78.80;;;;;;5083176;28;20206;-45
2023/12/22 11:19:04;;;;;;;0.00;0.00;;;12.60;78.90;;;;;;5081287;28;20212;-43
2023/12/22 11:21:32;;;;;;;0.00;0.00;;;12.60;78.90;;;;;;5089650;28;20565;-46
2023/12/22 11:24:05;;;;;;;0.00;0.00;;;12.60;78.90;;;;;;5073511;28;20199;-46
2023/12/22 11:26:33;;;;;;;0.00;0.00;;;12.60;78.80;;;;;;5078591;28;20230;-46
2023/12/22 11:29:02;;;;;;;0.00;0.00;;;12.60;78.90;;;;;;5073258;28;20597;-45
2023/12/22 11:31:36;;;;;;;0.00;0.00;;;12.60;79.00;;;;;;5086777;28;20222;-45
2023/12/22 11:34:06;;;;;;;0.00;0.00;;;12.60;78.90;;;;;;5086856;28;20324;-47
2023/12/22 11:36:45;;;;;;;0.00;0.00;;;12.60;78.90;;;;;;5076237;28;20192;-49
2023/12/22 11:39:15;;;;;;;0.00;0.00;;;12.60;78.80;;;;;;5079291;28;20191;-50
2023/12/22 11:41:46;;;;;;;0.00;0.00;;;12.60;78.80;;;;;;5087847;28;20203;-49
2023/12/22 11:44:13;;;;;;;0.00;0.00;;;12.50;78.90;;;;;;5068444;28;20202;-49
2023/12/22 11:46:43;;;;;;;0.00;0.00;;;12.50;78.90;;;;;;5084513;28;20211;-50
2023/12/22 11:49:15;;;;;;;0.00;0.00;;;12.60;79.00;;;;;;5061481;28;20340;-50
2023/12/22 11:51:45;;;;;;;0.00;0.00;;;12.60;79.00;;;;;;5083678;28;20222;-50
2023/12/22 11:54:46;;;;;;;0.00;0.00;;;12.60;79.10;;;;;;5087687;28;20213;-50
2023/12/22 11:57:28;;;;;;;0.00;0.00;;;12.50;78.90;;;;;;5083785;28;20211;-50
2023/12/22 11:59:57;;;;;;;0.00;0.00;;;12.60;79.10;;;;;;5090692;28;20199;-51
2023/12/22 12:02:24;;;;;;;0.00;0.00;;;12.50;78.90;;;;;;5071894;28;20195;-51
2023/12/22 12:04:52;;;;;;;0.00;0.00;;;12.50;79.00;;;;;;5089294;28;20747;-51
2023/12/22 12:07:48;;;;;;;0.00;0.00;;;12.50;79.00;;;;;;5050352;28;20674;-47
2023/12/22 12:10:48;;;;;;;0.00;0.00;;;12.60;79.00;;;;;;5079696;28;20968;-45
2023/12/22 12:13:25;;;;;;;0.00;0.00;;;12.50;79.00;;;;;;5082528;28;20701;-51
2023/12/22 12:15:59;;;;;;;0.00;0.00;;;12.50;79.30;;;;;;5074467;28;20256;-49
2023/12/22 12:18:31;;;;;;;0.00;0.00;;;12.50;79.10;;;;;;5089132;28;20199;-51
2023/12/22 12:21:03;;;;;;;0.00;0.00;;;12.50;79.10;;;;;;5088079;28;20572;-48
2023/12/22 12:23:30;;;;;;;0.00;0.00;;;12.50;79.20;;;;;;5076888;28;20257;-48
2023/12/22 12:25:58;;;;;;;0.00;0.00;;;12.50;79.10;;;;;;5080174;28;20201;-50
2023/12/22 12:28:38;;;;;;;0.00;0.00;;;12.50;79.20;;;;;;5089102;28;20194;-50
2023/12/22 12:31:08;;;;;;;0.00;0.00;;;12.50;79.10;;;;;;5089286;28;20623;-45
2023/12/22 12:33:39;;;;;;;0.00;0.00;;;12.50;79.10;;;;;;5071217;28;20222;-51
2023/12/22 12:36:09;;;;;;;0.00;0.00;;;12.60;79.20;;;;;;5082363;28;20311;-49
2023/12/22 12:38:55;;;;;;;0.00;0.00;;;12.60;79.20;;;;;;5077491;28;20260;-51
2023/12/22 12:41:31;;;;;;;0.00;0.00;;;12.60;79.30;;;;;;5087867;28;20209;-50
2023/12/22 12:44:07;;;;;;;0.00;0.00;;;12.60;79.10;;;;;;5077790;28;20203;-25
2023/12/22 12:46:38;;;;;;;0.00;0.00;;;12.60;79.10;;;;;;5076536;28;20203;-25
2023/12/22 12:49:11;;;;;;;0.00;0.00;;;12.60;79.20;;;;;;5086746;28;20201;-25
2023/12/22 12:51:41;;;;;;;0.00;0.00;;;12.60;79.20;;;;;;5085692;28;20230;-25
2023/12/22 12:54:15;;;;;;;0.00;0.00;;;12.60;79.20;;;;;;5087615;28;20195;-25
2023/12/22 12:56:46;;;;;;;0.00;0.00;;;12.60;79.20;;;;;;5085369;28;20195;-25
2023/12/22 12:59:20;;;;;;;0.00;0.00;;;12.60;79.10;;;;;;5086171;28;20211;-25
2023/12/22 13:01:50;;;;;;;0.00;0.00;;;12.60;79.10;;;;;;5079306;28;20211;-25
2023/12/22 13:04:20;;;;;;;0.00;0.00;;;12.60;79.10;;;;;;5085191;28;20206;-25